sensor_id;sensor_type;location;lat;lon;timestamp;P1;durP1;ratioP1;P2;durP2;ratioP2
14975;SDS011;7584;60.468;25.126;2023-06-26T00:00:42;8.20;;;6.77;;
14975;SDS011;7584;60.468;25.126;2023-06-26T00:03:08;10.27;;;6.80;;
14975;SDS011;7584;60.468;25.126;2023-06-26T00:05:33;9.17;;;7.00;;
14975;SDS011;7584;60.468;25.126;2023-06-26T00:07:59;8.97;;;7.10;;
14975;SDS011;7584;60.468;25.126;2023-06-26T00:10:26;11.00;;;7.40;;
14975;SDS011;7584;60.468;25.126;2023-06-26T00:12:51;8.40;;;7.50;;
14975;SDS011;7584;60.468;25.126;2023-06-26T00:15:16;7.43;;;6.57;;
14975;SDS011;7584;60.468;25.126;2023-06-26T00:17:42;8.50;;;7.37;;
14975;SDS011;7584;60.468;25.126;2023-06-26T00:20:07;14.47;;;7.60;;
14975;SDS011;7584;60.468;25.126;2023-06-26T00:22:34;10.87;;;7.13;;
14975;SDS011;7584;60.468;25.126;2023-06-26T00:24:59;11.33;;;7.27;;
14975;SDS011;7584;60.468;25.126;2023-06-26T00:27:24;9.47;;;7.17;;
14975;SDS011;7584;60.468;25.126;2023-06-26T00:29:49;10.17;;;7.47;;
14975;SDS011;7584;60.468;25.126;2023-06-26T00:32:17;8.27;;;6.53;;
14975;SDS011;7584;60.468;25.126;2023-06-26T00:34:43;10.40;;;7.13;;
14975;SDS011;7584;60.468;25.126;2023-06-26T00:37:08;9.17;;;7.23;;
14975;SDS011;7584;60.468;25.126;2023-06-26T00:39:33;8.63;;;6.53;;
14975;SDS011;7584;60.468;25.126;2023-06-26T00:41:59;8.10;;;6.40;;
14975;SDS011;7584;60.468;25.126;2023-06-26T00:44:24;8.60;;;6.90;;
14975;SDS011;7584;60.468;25.126;2023-06-26T00:46:49;7.33;;;6.30;;
14975;SDS011;7584;60.468;25.126;2023-06-26T00:49:15;9.00;;;7.23;;
14975;SDS011;7584;60.468;25.126;2023-06-26T00:51:40;8.70;;;7.10;;
14975;SDS011;7584;60.468;25.126;2023-06-26T00:54:06;9.83;;;6.80;;
14975;SDS011;7584;60.468;25.126;2023-06-26T00:56:31;9.27;;;6.80;;
14975;SDS011;7584;60.468;25.126;2023-06-26T00:58:57;9.07;;;7.23;;
14975;SDS011;7584;60.468;25.126;2023-06-26T01:01:22;9.47;;;7.47;;
14975;SDS011;7584;60.468;25.126;2023-06-26T01:03:50;9.50;;;7.30;;
14975;SDS011;7584;60.468;25.126;2023-06-26T01:06:16;9.47;;;6.90;;
14975;SDS011;7584;60.468;25.126;2023-06-26T01:08:42;8.13;;;7.27;;
14975;SDS011;7584;60.468;25.126;2023-06-26T01:11:08;9.00;;;7.30;;
14975;SDS011;7584;60.468;25.126;2023-06-26T01:13:34;9.33;;;7.60;;
14975;SDS011;7584;60.468;25.126;2023-06-26T01:16:00;9.67;;;6.87;;
14975;SDS011;7584;60.468;25.126;2023-06-26T01:18:26;8.70;;;7.07;;
14975;SDS011;7584;60.468;25.126;2023-06-26T01:20:52;8.80;;;6.67;;
14975;SDS011;7584;60.468;25.126;2023-06-26T01:23:27;11.17;;;7.40;;
14975;SDS011;7584;60.468;25.126;2023-06-26T01:28:32;12.60;;;7.17;;
14975;SDS011;7584;60.468;25.126;2023-06-26T01:30:58;11.53;;;7.63;;
14975;SDS011;7584;60.468;25.126;2023-06-26T01:33:24;13.93;;;7.80;;
14975;SDS011;7584;60.468;25.126;2023-06-26T01:35:49;10.17;;;7.23;;
14975;SDS011;7584;60.468;25.126;2023-06-26T01:38:19;11.20;;;7.00;;
14975;SDS011;7584;60.468;25.126;2023-06-26T01:40:45;9.13;;;7.37;;
14975;SDS011;7584;60.468;25.126;2023-06-26T01:45:59;11.43;;;8.33;;
14975;SDS011;7584;60.468;25.126;2023-06-26T01:48:28;12.00;;;7.23;;
14975;SDS011;7584;60.468;25.126;2023-06-26T01:50:55;11.73;;;6.80;;
14975;SDS011;7584;60.468;25.126;2023-06-26T01:53:24;10.90;;;7.20;;
14975;SDS011;7584;60.468;25.126;2023-06-26T01:55:55;11.37;;;7.50;;
14975;SDS011;7584;60.468;25.126;2023-06-26T01:58:23;8.57;;;6.90;;
14975;SDS011;7584;60.468;25.126;2023-06-26T02:00:49;8.63;;;6.93;;
14975;SDS011;7584;60.468;25.126;2023-06-26T02:03:15;11.80;;;7.97;;
14975;SDS011;7584;60.468;25.126;2023-06-26T02:05:40;10.67;;;7.30;;
14975;SDS011;7584;60.468;25.126;2023-06-26T02:08:06;8.93;;;7.40;;
14975;SDS011;7584;60.468;25.126;2023-06-26T02:10:31;10.23;;;7.73;;
14975;SDS011;7584;60.468;25.126;2023-06-26T02:12:57;11.57;;;7.50;;
14975;SDS011;7584;60.468;25.126;2023-06-26T02:15:22;8.87;;;7.47;;
14975;SDS011;7584;60.468;25.126;2023-06-26T02:17:47;11.90;;;7.53;;
14975;SDS011;7584;60.468;25.126;2023-06-26T02:20:13;10.43;;;7.40;;
14975;SDS011;7584;60.468;25.126;2023-06-26T02:22:38;10.13;;;7.90;;
14975;SDS011;7584;60.468;25.126;2023-06-26T02:25:04;9.43;;;7.87;;
14975;SDS011;7584;60.468;25.126;2023-06-26T02:27:29;8.77;;;7.30;;
14975;SDS011;7584;60.468;25.126;2023-06-26T02:29:55;10.77;;;7.70;;
14975;SDS011;7584;60.468;25.126;2023-06-26T02:32:20;10.17;;;7.87;;
14975;SDS011;7584;60.468;25.126;2023-06-26T02:34:45;9.30;;;7.27;;
14975;SDS011;7584;60.468;25.126;2023-06-26T02:37:11;9.90;;;7.67;;
14975;SDS011;7584;60.468;25.126;2023-06-26T02:39:36;8.47;;;7.30;;
14975;SDS011;7584;60.468;25.126;2023-06-26T02:42:02;10.90;;;7.63;;
14975;SDS011;7584;60.468;25.126;2023-06-26T02:44:27;11.30;;;8.27;;
14975;SDS011;7584;60.468;25.126;2023-06-26T02:46:52;10.80;;;8.23;;
14975;SDS011;7584;60.468;25.126;2023-06-26T02:49:17;12.53;;;8.33;;
14975;SDS011;7584;60.468;25.126;2023-06-26T02:51:43;10.83;;;7.93;;
14975;SDS011;7584;60.468;25.126;2023-06-26T02:54:08;10.53;;;7.83;;
14975;SDS011;7584;60.468;25.126;2023-06-26T02:56:33;8.80;;;7.83;;
14975;SDS011;7584;60.468;25.126;2023-06-26T02:58:59;11.47;;;8.03;;
14975;SDS011;7584;60.468;25.126;2023-06-26T03:01:24;9.83;;;7.73;;
14975;SDS011;7584;60.468;25.126;2023-06-26T03:03:49;10.50;;;7.40;;
14975;SDS011;7584;60.468;25.126;2023-06-26T03:06:15;9.13;;;7.70;;
14975;SDS011;7584;60.468;25.126;2023-06-26T03:08:40;8.97;;;8.07;;
14975;SDS011;7584;60.468;25.126;2023-06-26T03:11:06;10.60;;;7.90;;
14975;SDS011;7584;60.468;25.126;2023-06-26T03:13:32;8.90;;;8.00;;
14975;SDS011;7584;60.468;25.126;2023-06-26T03:15:57;9.60;;;8.60;;
14975;SDS011;7584;60.468;25.126;2023-06-26T03:18:23;11.70;;;7.80;;
14975;SDS011;7584;60.468;25.126;2023-06-26T03:20:48;9.53;;;8.10;;
14975;SDS011;7584;60.468;25.126;2023-06-26T03:23:13;9.57;;;8.40;;
14975;SDS011;7584;60.468;25.126;2023-06-26T03:25:38;8.77;;;7.87;;
14975;SDS011;7584;60.468;25.126;2023-06-26T03:28:04;8.53;;;7.37;;
14975;SDS011;7584;60.468;25.126;2023-06-26T03:30:29;11.07;;;8.43;;
14975;SDS011;7584;60.468;25.126;2023-06-26T03:32:54;9.30;;;8.23;;
14975;SDS011;7584;60.468;25.126;2023-06-26T03:35:19;8.77;;;7.87;;
14975;SDS011;7584;60.468;25.126;2023-06-26T03:37:45;8.97;;;8.03;;
14975;SDS011;7584;60.468;25.126;2023-06-26T03:40:10;8.57;;;7.73;;
14975;SDS011;7584;60.468;25.126;2023-06-26T03:42:36;11.67;;;7.90;;
14975;SDS011;7584;60.468;25.126;2023-06-26T03:45:01;9.73;;;8.73;;
14975;SDS011;7584;60.468;25.126;2023-06-26T03:47:26;9.87;;;8.87;;
14975;SDS011;7584;60.468;25.126;2023-06-26T03:49:51;9.00;;;7.93;;
14975;SDS011;7584;60.468;25.126;2023-06-26T03:52:23;8.20;;;7.40;;
14975;SDS011;7584;60.468;25.126;2023-06-26T03:54:52;10.10;;;8.00;;
14975;SDS011;7584;60.468;25.126;2023-06-26T03:57:17;11.53;;;8.53;;
14975;SDS011;7584;60.468;25.126;2023-06-26T03:59:42;10.53;;;8.17;;
14975;SDS011;7584;60.468;25.126;2023-06-26T04:02:08;10.30;;;8.03;;
14975;SDS011;7584;60.468;25.126;2023-06-26T04:04:33;9.67;;;8.77;;
14975;SDS011;7584;60.468;25.126;2023-06-26T04:06:58;11.83;;;8.70;;
14975;SDS011;7584;60.468;25.126;2023-06-26T04:09:24;9.50;;;8.00;;
14975;SDS011;7584;60.468;25.126;2023-06-26T04:11:50;8.43;;;7.63;;
14975;SDS011;7584;60.468;25.126;2023-06-26T04:14:15;8.50;;;7.60;;
14975;SDS011;7584;60.468;25.126;2023-06-26T04:16:40;10.32;;;7.35;;
14975;SDS011;7584;60.468;25.126;2023-06-26T04:19:06;8.45;;;7.38;;
14975;SDS011;7584;60.468;25.126;2023-06-26T04:21:31;8.20;;;7.37;;
14975;SDS011;7584;60.468;25.126;2023-06-26T04:23:56;12.02;;;7.53;;
14975;SDS011;7584;60.468;25.126;2023-06-26T04:26:22;8.40;;;7.60;;
14975;SDS011;7584;60.468;25.126;2023-06-26T04:28:47;9.05;;;7.50;;
14975;SDS011;7584;60.468;25.126;2023-06-26T04:31:13;8.90;;;7.72;;
14975;SDS011;7584;60.468;25.126;2023-06-26T04:33:38;9.55;;;8.02;;
14975;SDS011;7584;60.468;25.126;2023-06-26T04:36:04;8.02;;;7.20;;
14975;SDS011;7584;60.468;25.126;2023-06-26T04:38:33;8.57;;;7.78;;
14975;SDS011;7584;60.468;25.126;2023-06-26T04:40:59;8.02;;;7.22;;
14975;SDS011;7584;60.468;25.126;2023-06-26T04:43:24;8.05;;;7.15;;
14975;SDS011;7584;60.468;25.126;2023-06-26T04:45:49;7.88;;;7.15;;
14975;SDS011;7584;60.468;25.126;2023-06-26T04:48:15;8.75;;;7.30;;
14975;SDS011;7584;60.468;25.126;2023-06-26T04:50:40;8.07;;;7.28;;
14975;SDS011;7584;60.468;25.126;2023-06-26T04:53:05;7.97;;;7.18;;
14975;SDS011;7584;60.468;25.126;2023-06-26T04:55:31;10.32;;;7.68;;
14975;SDS011;7584;60.468;25.126;2023-06-26T04:57:56;11.23;;;7.88;;
14975;SDS011;7584;60.468;25.126;2023-06-26T05:00:21;9.45;;;7.50;;
14975;SDS011;7584;60.468;25.126;2023-06-26T05:02:47;8.70;;;7.05;;
14975;SDS011;7584;60.468;25.126;2023-06-26T05:05:12;10.35;;;6.97;;
14975;SDS011;7584;60.468;25.126;2023-06-26T05:07:38;7.80;;;7.00;;
14975;SDS011;7584;60.468;25.126;2023-06-26T05:10:04;7.93;;;7.03;;
14975;SDS011;7584;60.468;25.126;2023-06-26T05:12:29;8.00;;;6.88;;
14975;SDS011;7584;60.468;25.126;2023-06-26T05:14:54;7.03;;;6.40;;
14975;SDS011;7584;60.468;25.126;2023-06-26T05:17:20;8.32;;;7.30;;
14975;SDS011;7584;60.468;25.126;2023-06-26T05:19:45;10.40;;;6.93;;
14975;SDS011;7584;60.468;25.126;2023-06-26T05:22:11;8.25;;;6.82;;
14975;SDS011;7584;60.468;25.126;2023-06-26T05:24:38;7.57;;;6.72;;
14975;SDS011;7584;60.468;25.126;2023-06-26T05:27:03;7.80;;;7.05;;
14975;SDS011;7584;60.468;25.126;2023-06-26T05:29:32;7.15;;;6.45;;
14975;SDS011;7584;60.468;25.126;2023-06-26T05:31:58;7.63;;;6.93;;
14975;SDS011;7584;60.468;25.126;2023-06-26T05:34:23;6.95;;;6.25;;
14975;SDS011;7584;60.468;25.126;2023-06-26T05:36:52;7.07;;;6.38;;
14975;SDS011;7584;60.468;25.126;2023-06-26T05:39:20;7.38;;;6.70;;
14975;SDS011;7584;60.468;25.126;2023-06-26T05:41:45;7.47;;;6.78;;
14975;SDS011;7584;60.468;25.126;2023-06-26T05:44:10;7.63;;;5.93;;
14975;SDS011;7584;60.468;25.126;2023-06-26T05:46:36;7.20;;;6.50;;
14975;SDS011;7584;60.468;25.126;2023-06-26T05:49:01;6.90;;;6.30;;
14975;SDS011;7584;60.468;25.126;2023-06-26T05:51:27;7.03;;;5.90;;
14975;SDS011;7584;60.468;25.126;2023-06-26T05:53:52;6.38;;;5.57;;
14975;SDS011;7584;60.468;25.126;2023-06-26T05:56:18;6.35;;;5.45;;
14975;SDS011;7584;60.468;25.126;2023-06-26T05:58:43;6.50;;;5.90;;
14975;SDS011;7584;60.468;25.126;2023-06-26T06:01:09;6.22;;;5.63;;
14975;SDS011;7584;60.468;25.126;2023-06-26T06:03:34;7.18;;;6.30;;
14975;SDS011;7584;60.468;25.126;2023-06-26T06:05:59;6.43;;;5.50;;
14975;SDS011;7584;60.468;25.126;2023-06-26T06:08:24;8.38;;;6.32;;
14975;SDS011;7584;60.468;25.126;2023-06-26T06:10:50;6.50;;;5.90;;
14975;SDS011;7584;60.468;25.126;2023-06-26T06:13:15;7.07;;;6.45;;
14975;SDS011;7584;60.468;25.126;2023-06-26T06:15:40;6.28;;;5.68;;
14975;SDS011;7584;60.468;25.126;2023-06-26T06:18:06;6.75;;;6.07;;
14975;SDS011;7584;60.468;25.126;2023-06-26T06:20:31;8.70;;;6.30;;
14975;SDS011;7584;60.468;25.126;2023-06-26T06:22:56;6.32;;;5.38;;
14975;SDS011;7584;60.468;25.126;2023-06-26T06:25:22;5.38;;;4.97;;
14975;SDS011;7584;60.468;25.126;2023-06-26T06:27:47;6.97;;;5.85;;
14975;SDS011;7584;60.468;25.126;2023-06-26T06:30:12;5.97;;;5.47;;
14975;SDS011;7584;60.468;25.126;2023-06-26T06:32:38;5.00;;;4.60;;
14975;SDS011;7584;60.468;25.126;2023-06-26T06:35:03;5.47;;;5.05;;
14975;SDS011;7584;60.468;25.126;2023-06-26T06:37:34;6.40;;;5.80;;
14975;SDS011;7584;60.468;25.126;2023-06-26T06:39:59;6.60;;;6.00;;
14975;SDS011;7584;60.468;25.126;2023-06-26T06:42:24;6.43;;;5.93;;
14975;SDS011;7584;60.468;25.126;2023-06-26T06:44:50;6.25;;;5.75;;
14975;SDS011;7584;60.468;25.126;2023-06-26T06:47:15;5.82;;;5.32;;
14975;SDS011;7584;60.468;25.126;2023-06-26T06:49:40;5.82;;;5.32;;
14975;SDS011;7584;60.468;25.126;2023-06-26T06:52:06;5.63;;;5.15;;
14975;SDS011;7584;60.468;25.126;2023-06-26T06:54:31;7.60;;;5.20;;
14975;SDS011;7584;60.468;25.126;2023-06-26T06:56:56;6.28;;;5.68;;
14975;SDS011;7584;60.468;25.126;2023-06-26T06:59:21;5.85;;;5.18;;
14975;SDS011;7584;60.468;25.126;2023-06-26T07:01:47;6.38;;;5.72;;
14975;SDS011;7584;60.468;25.126;2023-06-26T07:04:12;5.30;;;4.82;;
14975;SDS011;7584;60.468;25.126;2023-06-26T07:06:37;5.78;;;5.28;;
14975;SDS011;7584;60.468;25.126;2023-06-26T07:09:03;6.28;;;5.78;;
14975;SDS011;7584;60.468;25.126;2023-06-26T07:11:28;5.82;;;5.32;;
14975;SDS011;7584;60.468;25.126;2023-06-26T07:13:54;6.35;;;5.43;;
14975;SDS011;7584;60.468;25.126;2023-06-26T07:16:19;6.95;;;5.43;;
14975;SDS011;7584;60.468;25.126;2023-06-26T07:18:44;5.47;;;4.88;;
14975;SDS011;7584;60.468;25.126;2023-06-26T07:21:10;5.60;;;5.05;;
14975;SDS011;7584;60.468;25.126;2023-06-26T07:23:35;5.45;;;4.95;;
14975;SDS011;7584;60.468;25.126;2023-06-26T07:26:01;5.55;;;5.05;;
14975;SDS011;7584;60.468;25.126;2023-06-26T07:28:26;5.90;;;5.30;;
14975;SDS011;7584;60.468;25.126;2023-06-26T07:30:51;6.28;;;5.68;;
14975;SDS011;7584;60.468;25.126;2023-06-26T07:33:16;6.20;;;5.68;;
14975;SDS011;7584;60.468;25.126;2023-06-26T07:35:42;5.70;;;5.20;;
14975;SDS011;7584;60.468;25.126;2023-06-26T07:38:07;8.15;;;5.25;;
14975;SDS011;7584;60.468;25.126;2023-06-26T07:40:32;6.00;;;4.93;;
14975;SDS011;7584;60.468;25.126;2023-06-26T07:42:58;5.30;;;4.72;;
14975;SDS011;7584;60.468;25.126;2023-06-26T07:45:23;5.28;;;4.78;;
14975;SDS011;7584;60.468;25.126;2023-06-26T07:47:49;5.32;;;4.82;;
14975;SDS011;7584;60.468;25.126;2023-06-26T07:50:14;5.05;;;4.45;;
14975;SDS011;7584;60.468;25.126;2023-06-26T07:52:44;7.28;;;4.75;;
14975;SDS011;7584;60.468;25.126;2023-06-26T07:55:10;5.40;;;4.90;;
14975;SDS011;7584;60.468;25.126;2023-06-26T07:57:35;5.20;;;4.38;;
14975;SDS011;7584;60.468;25.126;2023-06-26T08:00:00;4.60;;;4.20;;
14975;SDS011;7584;60.468;25.126;2023-06-26T08:02:26;5.20;;;4.60;;
14975;SDS011;7584;60.468;25.126;2023-06-26T08:04:51;4.97;;;4.10;;
14975;SDS011;7584;60.468;25.126;2023-06-26T08:07:16;4.50;;;4.10;;
14975;SDS011;7584;60.468;25.126;2023-06-26T08:09:41;4.68;;;4.28;;
14975;SDS011;7584;60.468;25.126;2023-06-26T08:12:07;4.60;;;4.20;;
14975;SDS011;7584;60.468;25.126;2023-06-26T08:14:32;4.80;;;4.15;;
14975;SDS011;7584;60.468;25.126;2023-06-26T08:16:58;4.57;;;4.18;;
14975;SDS011;7584;60.468;25.126;2023-06-26T08:19:24;4.50;;;4.10;;
14975;SDS011;7584;60.468;25.126;2023-06-26T08:21:50;4.20;;;3.80;;
14975;SDS011;7584;60.468;25.126;2023-06-26T08:24:15;4.28;;;3.63;;
14975;SDS011;7584;60.468;25.126;2023-06-26T08:26:47;4.55;;;4.15;;
14975;SDS011;7584;60.468;25.126;2023-06-26T08:29:13;5.32;;;4.40;;
14975;SDS011;7584;60.468;25.126;2023-06-26T08:31:39;4.05;;;3.75;;
14975;SDS011;7584;60.468;25.126;2023-06-26T08:34:04;4.25;;;3.88;;
14975;SDS011;7584;60.468;25.126;2023-06-26T08:36:30;4.53;;;4.13;;
14975;SDS011;7584;60.468;25.126;2023-06-26T08:38:55;5.95;;;3.90;;
14975;SDS011;7584;60.468;25.126;2023-06-26T08:41:21;4.88;;;4.05;;
14975;SDS011;7584;60.468;25.126;2023-06-26T08:43:46;6.25;;;4.53;;
14975;SDS011;7584;60.468;25.126;2023-06-26T08:46:11;4.30;;;3.95;;
14975;SDS011;7584;60.468;25.126;2023-06-26T08:48:37;4.10;;;3.70;;
14975;SDS011;7584;60.468;25.126;2023-06-26T08:51:05;4.15;;;3.75;;
14975;SDS011;7584;60.468;25.126;2023-06-26T08:53:40;3.83;;;3.53;;
14975;SDS011;7584;60.468;25.126;2023-06-26T08:56:07;3.35;;;3.13;;
14975;SDS011;7584;60.468;25.126;2023-06-26T08:58:33;3.55;;;3.20;;
14975;SDS011;7584;60.468;25.126;2023-06-26T09:01:01;4.43;;;4.03;;
14975;SDS011;7584;60.468;25.126;2023-06-26T09:03:28;5.32;;;3.50;;
14975;SDS011;7584;60.468;25.126;2023-06-26T09:05:53;6.43;;;4.03;;
14975;SDS011;7584;60.468;25.126;2023-06-26T09:08:19;5.78;;;4.30;;
14975;SDS011;7584;60.468;25.126;2023-06-26T09:10:44;3.50;;;3.20;;
14975;SDS011;7584;60.468;25.126;2023-06-26T09:13:09;4.13;;;3.38;;
14975;SDS011;7584;60.468;25.126;2023-06-26T09:15:39;3.83;;;3.53;;
14975;SDS011;7584;60.468;25.126;2023-06-26T09:18:06;3.78;;;3.33;;
14975;SDS011;7584;60.468;25.126;2023-06-26T09:20:32;5.18;;;3.47;;
14975;SDS011;7584;60.468;25.126;2023-06-26T09:22:58;5.28;;;3.05;;
14975;SDS011;7584;60.468;25.126;2023-06-26T09:25:24;3.78;;;3.25;;
14975;SDS011;7584;60.468;25.126;2023-06-26T09:27:49;4.00;;;3.63;;
14975;SDS011;7584;60.468;25.126;2023-06-26T09:30:18;3.70;;;3.38;;
14975;SDS011;7584;60.468;25.126;2023-06-26T09:32:43;3.80;;;3.35;;
14975;SDS011;7584;60.468;25.126;2023-06-26T09:35:09;3.42;;;3.22;;
14975;SDS011;7584;60.468;25.126;2023-06-26T09:37:34;4.22;;;3.83;;
14975;SDS011;7584;60.468;25.126;2023-06-26T09:40:00;4.13;;;3.20;;
14975;SDS011;7584;60.468;25.126;2023-06-26T09:42:25;3.40;;;3.10;;
14975;SDS011;7584;60.468;25.126;2023-06-26T09:44:51;3.88;;;3.25;;
14975;SDS011;7584;60.468;25.126;2023-06-26T09:47:16;4.47;;;3.92;;
14975;SDS011;7584;60.468;25.126;2023-06-26T09:49:42;4.05;;;2.92;;
14975;SDS011;7584;60.468;25.126;2023-06-26T09:52:08;4.32;;;3.38;;
14975;SDS011;7584;60.468;25.126;2023-06-26T09:54:34;3.88;;;3.58;;
14975;SDS011;7584;60.468;25.126;2023-06-26T09:57:10;4.45;;;3.50;;
14975;SDS011;7584;60.468;25.126;2023-06-26T09:59:35;5.03;;;3.40;;
14975;SDS011;7584;60.468;25.126;2023-06-26T10:02:01;3.05;;;2.75;;
14975;SDS011;7584;60.468;25.126;2023-06-26T10:04:26;3.60;;;3.30;;
14975;SDS011;7584;60.468;25.126;2023-06-26T10:06:51;5.97;;;3.35;;
14975;SDS011;7584;60.468;25.126;2023-06-26T10:09:19;3.67;;;2.97;;
14975;SDS011;7584;60.468;25.126;2023-06-26T10:11:55;5.47;;;3.33;;
14975;SDS011;7584;60.468;25.126;2023-06-26T10:14:21;3.92;;;3.50;;
14975;SDS011;7584;60.468;25.126;2023-06-26T10:16:50;4.15;;;3.20;;
14975;SDS011;7584;60.468;25.126;2023-06-26T10:19:16;5.65;;;3.10;;
14975;SDS011;7584;60.468;25.126;2023-06-26T10:21:46;3.45;;;3.03;;
14975;SDS011;7584;60.468;25.126;2023-06-26T10:24:11;4.13;;;3.22;;
14975;SDS011;7584;60.468;25.126;2023-06-26T10:26:38;4.00;;;3.63;;
14975;SDS011;7584;60.468;25.126;2023-06-26T10:29:05;5.07;;;3.47;;
14975;SDS011;7584;60.468;25.126;2023-06-26T10:31:31;4.07;;;3.35;;
14975;SDS011;7584;60.468;25.126;2023-06-26T10:33:56;7.72;;;3.20;;
14975;SDS011;7584;60.468;25.126;2023-06-26T10:36:31;3.15;;;2.80;;
14975;SDS011;7584;60.468;25.126;2023-06-26T10:38:57;3.13;;;2.92;;
14975;SDS011;7584;60.468;25.126;2023-06-26T10:41:24;4.22;;;2.95;;
14975;SDS011;7584;60.468;25.126;2023-06-26T10:43:50;3.90;;;3.17;;
14975;SDS011;7584;60.468;25.126;2023-06-26T10:46:15;3.20;;;2.92;;
14975;SDS011;7584;60.468;25.126;2023-06-26T10:48:59;12.43;;;3.47;;
14975;SDS011;7584;60.468;25.126;2023-06-26T10:51:25;3.38;;;2.97;;
14975;SDS011;7584;60.468;25.126;2023-06-26T10:53:57;2.60;;;2.40;;
14975;SDS011;7584;60.468;25.126;2023-06-26T10:56:41;3.42;;;2.90;;
14975;SDS011;7584;60.468;25.126;2023-06-26T10:59:11;6.47;;;3.13;;
14975;SDS011;7584;60.468;25.126;2023-06-26T11:01:41;3.35;;;3.08;;
14975;SDS011;7584;60.468;25.126;2023-06-26T11:04:10;3.35;;;3.08;;
14975;SDS011;7584;60.468;25.126;2023-06-26T11:06:36;4.07;;;2.88;;
14975;SDS011;7584;60.468;25.126;2023-06-26T11:14:13;4.45;;;3.00;;
14975;SDS011;7584;60.468;25.126;2023-06-26T11:16:39;2.90;;;2.70;;
14975;SDS011;7584;60.468;25.126;2023-06-26T11:19:07;3.10;;;2.90;;
14975;SDS011;7584;60.468;25.126;2023-06-26T11:21:32;5.03;;;2.80;;
14975;SDS011;7584;60.468;25.126;2023-06-26T11:23:58;4.63;;;2.75;;
14975;SDS011;7584;60.468;25.126;2023-06-26T11:26:26;3.30;;;3.00;;
14975;SDS011;7584;60.468;25.126;2023-06-26T11:28:53;3.45;;;2.70;;
14975;SDS011;7584;60.468;25.126;2023-06-26T11:31:26;4.18;;;2.85;;
14975;SDS011;7584;60.468;25.126;2023-06-26T11:33:53;3.83;;;3.05;;
14975;SDS011;7584;60.468;25.126;2023-06-26T11:36:18;2.90;;;2.65;;
14975;SDS011;7584;60.468;25.126;2023-06-26T11:38:43;2.78;;;2.42;;
14975;SDS011;7584;60.468;25.126;2023-06-26T11:41:08;2.90;;;2.70;;
14975;SDS011;7584;60.468;25.126;2023-06-26T11:43:34;2.65;;;2.45;;
14975;SDS011;7584;60.468;25.126;2023-06-26T11:45:59;5.22;;;2.75;;
14975;SDS011;7584;60.468;25.126;2023-06-26T11:48:25;2.42;;;2.20;;
14975;SDS011;7584;60.468;25.126;2023-06-26T11:50:51;2.97;;;2.58;;
14975;SDS011;7584;60.468;25.126;2023-06-26T11:53:16;3.03;;;2.83;;
14975;SDS011;7584;60.468;25.126;2023-06-26T11:55:42;3.08;;;2.80;;
14975;SDS011;7584;60.468;25.126;2023-06-26T11:58:08;3.20;;;2.92;;
14975;SDS011;7584;60.468;25.126;2023-06-26T12:00:33;4.70;;;2.67;;
14975;SDS011;7584;60.468;25.126;2023-06-26T12:02:59;5.28;;;2.95;;
14975;SDS011;7584;60.468;25.126;2023-06-26T12:05:24;4.05;;;3.03;;
14975;SDS011;7584;60.468;25.126;2023-06-26T12:07:50;3.10;;;2.90;;
14975;SDS011;7584;60.468;25.126;2023-06-26T12:10:16;3.10;;;2.85;;
14975;SDS011;7584;60.468;25.126;2023-06-26T12:12:42;4.90;;;3.50;;
14975;SDS011;7584;60.468;25.126;2023-06-26T12:15:08;6.63;;;3.78;;
14975;SDS011;7584;60.468;25.126;2023-06-26T12:17:36;3.30;;;2.60;;
14975;SDS011;7584;60.468;25.126;2023-06-26T12:20:02;3.83;;;3.42;;
14975;SDS011;7584;60.468;25.126;2023-06-26T12:22:33;3.58;;;3.28;;
14975;SDS011;7584;60.468;25.126;2023-06-26T12:24:59;4.30;;;3.13;;
14975;SDS011;7584;60.468;25.126;2023-06-26T12:27:24;3.30;;;3.00;;
14975;SDS011;7584;60.468;25.126;2023-06-26T12:29:51;4.40;;;3.47;;
14975;SDS011;7584;60.468;25.126;2023-06-26T12:32:18;5.80;;;3.38;;
14975;SDS011;7584;60.468;25.126;2023-06-26T12:34:46;3.83;;;3.53;;
14975;SDS011;7584;60.468;25.126;2023-06-26T12:37:12;4.13;;;3.72;;
14975;SDS011;7584;60.468;25.126;2023-06-26T12:39:48;6.57;;;3.47;;
14975;SDS011;7584;60.468;25.126;2023-06-26T12:42:15;5.07;;;3.67;;
14975;SDS011;7584;60.468;25.126;2023-06-26T12:44:40;5.88;;;3.83;;
14975;SDS011;7584;60.468;25.126;2023-06-26T12:47:06;4.15;;;3.75;;
14975;SDS011;7584;60.468;25.126;2023-06-26T12:49:42;5.07;;;4.03;;
14975;SDS011;7584;60.468;25.126;2023-06-26T12:52:08;4.18;;;3.78;;
14975;SDS011;7584;60.468;25.126;2023-06-26T12:54:34;4.03;;;3.63;;
14975;SDS011;7584;60.468;25.126;2023-06-26T12:56:59;5.47;;;3.88;;
14975;SDS011;7584;60.468;25.126;2023-06-26T12:59:25;5.03;;;4.20;;
14975;SDS011;7584;60.468;25.126;2023-06-26T13:01:50;7.30;;;4.38;;
14975;SDS011;7584;60.468;25.126;2023-06-26T13:04:15;7.88;;;4.57;;
14975;SDS011;7584;60.468;25.126;2023-06-26T13:06:41;5.78;;;4.00;;
14975;SDS011;7584;60.468;25.126;2023-06-26T13:09:06;4.65;;;4.03;;
14975;SDS011;7584;60.468;25.126;2023-06-26T13:11:32;6.18;;;4.45;;
14975;SDS011;7584;60.468;25.126;2023-06-26T13:13:57;5.00;;;4.50;;
14975;SDS011;7584;60.468;25.126;2023-06-26T13:16:23;4.15;;;3.72;;
14975;SDS011;7584;60.468;25.126;2023-06-26T13:18:48;6.25;;;4.28;;
14975;SDS011;7584;60.468;25.126;2023-06-26T13:21:14;4.95;;;4.45;;
14975;SDS011;7584;60.468;25.126;2023-06-26T13:23:39;5.97;;;4.80;;
14975;SDS011;7584;60.468;25.126;2023-06-26T13:26:05;5.30;;;4.13;;
14975;SDS011;7584;60.468;25.126;2023-06-26T13:28:31;6.60;;;4.82;;
14975;SDS011;7584;60.468;25.126;2023-06-26T13:30:56;4.78;;;4.15;;
14975;SDS011;7584;60.468;25.126;2023-06-26T13:33:21;5.28;;;4.78;;
14975;SDS011;7584;60.468;25.126;2023-06-26T13:35:50;9.75;;;4.88;;
14975;SDS011;7584;60.468;25.126;2023-06-26T13:38:16;9.00;;;4.38;;
14975;SDS011;7584;60.468;25.126;2023-06-26T13:40:42;16.63;;;4.70;;
14975;SDS011;7584;60.468;25.126;2023-06-26T13:43:08;9.60;;;4.25;;
14975;SDS011;7584;60.468;25.126;2023-06-26T13:45:33;6.25;;;3.88;;
14975;SDS011;7584;60.468;25.126;2023-06-26T13:47:58;6.90;;;3.92;;
14975;SDS011;7584;60.468;25.126;2023-06-26T13:50:24;5.90;;;3.80;;
14975;SDS011;7584;60.468;25.126;2023-06-26T13:52:49;4.60;;;3.92;;
14975;SDS011;7584;60.468;25.126;2023-06-26T13:55:14;6.50;;;4.60;;
14975;SDS011;7584;60.468;25.126;2023-06-26T13:57:39;4.88;;;3.78;;
14975;SDS011;7584;60.468;25.126;2023-06-26T14:00:07;5.35;;;3.97;;
14975;SDS011;7584;60.468;25.126;2023-06-26T14:02:32;4.38;;;3.70;;
14975;SDS011;7584;60.468;25.126;2023-06-26T14:04:58;4.72;;;3.92;;
14975;SDS011;7584;60.468;25.126;2023-06-26T14:07:23;4.40;;;4.00;;
14975;SDS011;7584;60.468;25.126;2023-06-26T14:09:49;5.65;;;4.20;;
14975;SDS011;7584;60.468;25.126;2023-06-26T14:12:15;4.15;;;3.75;;
14975;SDS011;7584;60.468;25.126;2023-06-26T14:14:40;5.25;;;3.80;;
14975;SDS011;7584;60.468;25.126;2023-06-26T14:17:05;4.80;;;4.00;;
14975;SDS011;7584;60.468;25.126;2023-06-26T14:19:31;3.67;;;3.38;;
14975;SDS011;7584;60.468;25.126;2023-06-26T14:21:56;4.45;;;3.97;;
14975;SDS011;7584;60.468;25.126;2023-06-26T14:24:21;4.38;;;3.97;;
14975;SDS011;7584;60.468;25.126;2023-06-26T14:26:46;5.65;;;3.47;;
14975;SDS011;7584;60.468;25.126;2023-06-26T14:29:12;4.95;;;3.95;;
14975;SDS011;7584;60.468;25.126;2023-06-26T14:31:40;4.65;;;3.80;;
14975;SDS011;7584;60.468;25.126;2023-06-26T14:34:05;4.35;;;3.90;;
14975;SDS011;7584;60.468;25.126;2023-06-26T14:36:31;8.35;;;4.10;;
14975;SDS011;7584;60.468;25.126;2023-06-26T14:38:57;8.30;;;4.40;;
14975;SDS011;7584;60.468;25.126;2023-06-26T14:41:22;6.45;;;4.00;;
14975;SDS011;7584;60.468;25.126;2023-06-26T14:43:47;4.30;;;3.90;;
14975;SDS011;7584;60.468;25.126;2023-06-26T14:46:13;5.28;;;3.58;;
14975;SDS011;7584;60.468;25.126;2023-06-26T14:48:38;6.05;;;3.92;;